Time;durP1;ratioP1;P1;durP2;ratioP2;P2;SDS_P1;SDS_P2;PMS_P1;PMS_P2;Temp;Humidity;BMP_temperature;BMP_pressure;BME280_temperature;BME280_humidity;BME280_pressure;Samples;Min_cycle;Max_cycle;Signal;HPM_P1;HPM_P2
2023/03/08 00:01:01;;;;;;;4.03;1.87;;;1.10;99.90;0.70;98811.00;;;;4992951;27;82888;-67
2023/03/08 00:03:27;;;;;;;5.20;1.57;;;1.00;99.90;0.70;98820.00;;;;4981698;28;83946;-67
2023/03/08 00:05:53;;;;;;;1.20;0.73;;;0.90;99.90;0.60;98814.00;;;;4981352;28;82914;-66
2023/03/08 00:08:19;;;;;;;2.87;1.50;;;1.00;99.90;0.70;98823.00;;;;4979499;28;110381;-66
2023/03/08 00:10:50;;;;;;;1.60;1.40;;;0.10;99.90;0.70;98826.00;;;;4982728;28;108554;-66
2023/03/08 00:13:16;;;;;;;2.63;1.23;;;1.00;99.90;0.70;98821.00;;;;4977554;28;112476;-66
2023/03/08 00:15:43;;;;;;;1.20;0.83;;;0.90;99.90;0.60;98825.00;;;;4979756;28;83920;-66
2023/03/08 00:18:08;;;;;;;2.07;1.47;;;0.90;99.90;0.60;98814.00;;;;4975697;28;84408;-68
2023/03/08 00:20:34;;;;;;;1.17;1.00;;;1.00;99.90;0.60;98833.00;;;;4981095;28;108720;-67
2023/03/08 00:23:08;;;;;;;1.90;1.33;;;1.00;99.90;0.60;98824.00;;;;4977158;28;112131;-69
2023/03/08 00:25:34;;;;;;;1.93;1.40;;;0.90;99.90;0.60;98813.00;;;;4979029;28;83446;-67
2023/03/08 00:28:00;;;;;;;2.13;1.40;;;1.00;99.90;0.60;98822.00;;;;4975466;27;100677;-67
2023/03/08 00:30:25;;;;;;;1.67;1.33;;;0.90;99.90;0.60;98819.00;;;;4975030;28;108285;-69
2023/03/08 00:32:51;;;;;;;2.97;1.90;;;0.90;99.90;0.60;98814.00;;;;4979700;28;82923;-68
2023/03/08 00:35:18;;;;;;;1.33;1.23;;;0.90;99.90;0.60;98828.00;;;;4978279;28;111238;-68
2023/03/08 00:37:44;;;;;;;2.03;1.60;;;0.90;99.90;0.60;98833.00;;;;4980791;28;82705;-68
2023/03/08 00:40:11;;;;;;;2.50;1.90;;;0.80;99.90;0.50;98836.00;;;;4976512;28;100152;-66
2023/03/08 00:42:36;;;;;;;2.73;1.63;;;0.90;99.90;0.60;98834.00;;;;4978313;28;102747;-67
2023/03/08 00:45:02;;;;;;;3.20;2.87;;;0.90;99.90;0.50;98811.00;;;;4979967;28;113120;-66
2023/03/08 00:47:28;;;;;;;2.40;1.97;;;0.80;99.90;0.50;98817.00;;;;4978402;28;99963;-66
2023/03/08 00:49:53;;;;;;;5.93;1.83;;;0.80;99.90;0.50;98824.00;;;;4976883;28;108336;-66
2023/03/08 00:52:19;;;;;;;3.30;2.33;;;0.80;99.90;0.50;98819.00;;;;4968845;28;114592;-67
2023/03/08 00:54:45;;;;;;;2.30;1.80;;;0.90;99.90;0.50;98813.00;;;;4974224;28;113381;-66
2023/03/08 00:57:10;;;;;;;4.93;2.67;;;0.90;99.90;0.50;98816.00;;;;4977468;28;110567;-68
2023/03/08 00:59:36;;;;;;;4.87;1.90;;;0.80;99.90;0.50;98826.00;;;;4980028;28;107606;-68
2023/03/08 01:02:02;;;;;;;2.43;1.80;;;0.70;99.90;0.50;98823.00;;;;4976883;28;111437;-66
2023/03/08 01:04:27;;;;;;;1.90;1.47;;;0.90;99.90;0.50;98833.00;;;;4978031;28;95457;-65
2023/03/08 01:06:53;;;;;;;1.80;1.47;;;0.90;99.90;0.50;98831.00;;;;4978516;28;86268;-66
2023/03/08 01:09:19;;;;;;;1.27;1.07;;;0.80;99.90;0.50;98833.00;;;;4981562;28;108748;-65
2023/03/08 01:11:47;;;;;;;2.80;1.60;;;0.70;99.90;0.50;98828.00;;;;4977197;28;110795;-65
2023/03/08 01:14:13;;;;;;;1.93;1.60;;;1.00;99.90;0.50;98843.00;;;;4978484;28;108289;-66
2023/03/08 01:16:40;;;;;;;1.97;1.57;;;0.80;99.90;0.50;98851.00;;;;4978521;28;109158;-65
2023/03/08 01:19:05;;;;;;;0.83;0.83;;;0.80;99.90;0.50;98849.00;;;;4976981;28;108356;-65
2023/03/08 01:21:31;;;;;;;1.53;1.43;;;0.80;99.90;0.50;98846.00;;;;4975020;28;112749;-66
2023/03/08 01:23:57;;;;;;;1.00;0.87;;;0.90;99.90;0.50;98839.00;;;;4979200;28;84708;-65
2023/03/08 01:26:25;;;;;;;1.93;1.00;;;0.80;99.90;0.50;98844.00;;;;4983916;28;109894;-65
2023/03/08 01:28:51;;;;;;;2.03;1.03;;;0.80;99.90;0.50;98856.00;;;;4983867;28;82434;-68
2023/03/08 01:31:20;;;;;;;1.67;1.10;;;0.80;99.90;0.50;98851.00;;;;4980021;28;93477;-68
2023/03/08 01:33:47;;;;;;;1.57;1.30;;;0.80;99.90;0.50;98849.00;;;;4976960;28;102576;-66
2023/03/08 01:36:17;;;;;;;2.47;1.37;;;0.80;99.90;0.50;98849.00;;;;4976723;28;82658;-66
2023/03/08 01:38:44;;;;;;;3.23;1.43;;;0.80;99.90;0.50;98859.00;;;;4978977;28;92362;-66
2023/03/08 01:41:29;;;;;;;1.67;1.40;;;0.80;99.90;0.50;98849.00;;;;4995020;27;84857;-67
2023/03/08 01:43:55;;;;;;;1.37;1.00;;;0.80;99.90;0.50;98839.00;;;;4976499;28;83034;-67
2023/03/08 01:46:30;;;;;;;1.20;1.10;;;0.80;99.90;0.50;98851.00;;;;4974674;28;84336;-65
2023/03/08 01:49:18;;;;;;;2.50;1.20;;;0.80;99.90;0.40;98863.00;;;;4973330;28;85257;-66
2023/03/08 01:52:01;;;;;;;2.43;1.53;;;0.80;99.90;0.50;98865.00;;;;4978372;28;82459;-66
2023/03/08 01:54:50;;;;;;;2.33;1.40;;;0.70;99.90;0.40;98861.00;;;;4990969;27;83676;-67
2023/03/08 01:57:38;;;;;;;2.80;1.77;;;0.70;99.90;0.40;98864.00;;;;4975481;28;82971;-68
2023/03/08 02:00:12;;;;;;;3.00;1.57;;;0.70;99.90;0.40;98861.00;;;;4992462;27;92971;-66
2023/03/08 02:02:48;;;;;;;2.93;1.40;;;0.80;99.90;0.40;98873.00;;;;4976900;28;82666;-66
2023/03/08 02:05:15;;;;;;;1.73;1.17;;;1.80;99.90;0.50;98859.00;;;;4973753;28;83036;-68
2023/03/08 02:07:41;;;;;;;2.40;1.53;;;0.80;99.90;0.50;98861.00;;;;4981478;28;83813;-67
2023/03/08 02:10:09;;;;;;;2.70;1.83;;;0.80;99.90;0.50;98866.00;;;;4973690;28;82648;-67
2023/03/08 02:12:35;;;;;;;2.97;1.73;;;1.20;99.90;0.50;98867.00;;;;4974484;28;104850;-67
2023/03/08 02:15:04;;;;;;;3.60;2.27;;;0.80;99.90;0.50;98870.00;;;;4975295;28;111944;-66
2023/03/08 02:17:30;;;;;;;2.80;1.77;;;0.70;99.90;0.40;98873.00;;;;4970157;28;82765;-66
2023/03/08 02:20:05;;;;;;;2.33;1.50;;;0.80;99.90;0.40;98873.00;;;;4974797;28;107102;-66
2023/03/08 02:22:36;;;;;;;3.53;2.13;;;0.70;99.90;0.40;98868.00;;;;4972453;28;83547;-66
2023/03/08 02:25:16;;;;;;;2.47;1.60;;;0.80;99.90;0.40;98884.00;;;;4975691;28;82745;-66
2023/03/08 02:27:42;;;;;;;3.90;2.47;;;0.80;99.90;0.40;98883.00;;;;4990170;27;82742;-67
2023/03/08 02:30:12;;;;;;;4.23;2.47;;;0.80;99.90;0.40;98876.00;;;;4965563;28;91098;-66
2023/03/08 02:32:38;;;;;;;4.03;1.63;;;0.70;99.90;0.40;98880.00;;;;4976809;28;83950;-67
2023/03/08 02:35:04;;;;;;;2.93;1.97;;;0.90;99.90;0.40;98871.00;;;;4976316;28;103034;-67
2023/03/08 02:37:31;;;;;;;1.93;1.70;;;0.70;99.90;0.40;98878.00;;;;4972112;28;84052;-68
2023/03/08 02:39:57;;;;;;;3.37;2.00;;;0.60;99.90;0.40;98873.00;;;;4970030;28;82641;-69
2023/03/08 02:42:23;;;;;;;3.70;2.60;;;0.80;99.90;0.40;98872.00;;;;4971470;28;104558;-68
2023/03/08 02:44:49;;;;;;;5.47;2.67;;;0.70;99.90;0.40;98860.00;;;;4979367;28;89287;-68
2023/03/08 02:47:15;;;;;;;3.70;2.20;;;0.70;99.90;0.30;98868.00;;;;4974849;28;110135;-68
2023/03/08 02:49:41;;;;;;;4.37;2.57;;;0.60;99.90;0.30;98880.00;;;;4977848;28;82052;-69
2023/03/08 02:52:07;;;;;;;3.57;2.07;;;0.70;99.90;0.30;98878.00;;;;4974437;28;112079;-68
2023/03/08 02:54:33;;;;;;;4.70;2.33;;;0.60;99.90;0.30;98877.00;;;;4975615;28;111373;-68
2023/03/08 02:56:59;;;;;;;8.67;3.20;;;0.60;99.90;0.30;98872.00;;;;4992481;27;108419;-68
2023/03/08 02:59:25;;;;;;;2.17;1.97;;;0.60;99.90;0.30;98864.00;;;;4972898;28;82854;-68
2023/03/08 03:01:51;;;;;;;3.13;2.43;;;0.60;99.90;0.30;98873.00;;;;4975923;28;83664;-69
2023/03/08 03:04:17;;;;;;;4.37;2.40;;;0.60;99.90;0.30;98875.00;;;;4966547;28;111746;-69
2023/03/08 03:06:43;;;;;;;3.20;2.40;;;0.70;99.90;0.20;98865.00;;;;4973071;28;82851;-68
2023/03/08 03:09:10;;;;;;;4.33;2.93;;;0.60;99.90;0.20;98845.00;;;;4974156;28;110257;-68
2023/03/08 03:11:40;;;;;;;2.90;2.53;;;0.50;99.90;0.10;98840.00;;;;4975945;28;83163;-68
2023/03/08 03:14:06;;;;;;;3.60;2.33;;;0.50;99.90;0.00;98857.00;;;;4970096;28;82901;-69
2023/03/08 03:16:32;;;;;;;2.97;2.03;;;0.40;99.90;0.00;98871.00;;;;4978150;28;101189;-69
2023/03/08 03:18:59;;;;;;;3.03;1.90;;;0.30;99.90;-0.10;98875.00;;;;4976534;27;89205;-69
2023/03/08 03:21:25;;;;;;;3.63;2.13;;;0.20;99.90;-0.10;98860.00;;;;4975584;28;84566;-69
2023/03/08 03:23:50;;;;;;;4.50;2.57;;;0.30;99.90;-0.20;98862.00;;;;4980187;28;105704;-69
2023/03/08 03:26:20;;;;;;;4.33;2.00;;;0.10;99.90;-0.20;98860.00;;;;4973548;28;110169;-69
2023/03/08 03:28:46;;;;;;;2.50;2.10;;;0.20;99.90;-0.30;98858.00;;;;4979539;28;82776;-69
2023/03/08 03:31:19;;;;;;;2.70;1.83;;;0.00;99.90;-0.30;98865.00;;;;4974376;28;83416;-69
2023/03/08 03:33:47;;;;;;;3.93;2.17;;;0.10;99.90;-0.30;98876.00;;;;4976279;28;89037;-69
2023/03/08 03:36:17;;;;;;;2.63;2.03;;;0.00;99.90;-0.30;98881.00;;;;4974432;28;102467;-70
2023/03/08 03:38:43;;;;;;;2.83;2.50;;;0.00;99.90;-0.30;98887.00;;;;4971542;28;101361;-69
2023/03/08 03:41:13;;;;;;;2.83;1.97;;;0.00;99.90;-0.30;98887.00;;;;4972940;28;95242;-69
2023/03/08 03:43:40;;;;;;;3.50;2.73;;;0.00;99.90;-0.30;98890.00;;;;4972717;28;83310;-69
2023/03/08 03:46:09;;;;;;;2.77;1.63;;;0.00;99.90;-0.30;98896.00;;;;4973375;28;83964;-69
2023/03/08 03:48:36;;;;;;;4.27;1.77;;;0.00;99.90;-0.30;98900.00;;;;4969919;28;101473;-69
2023/03/08 03:51:05;;;;;;;3.00;1.87;;;0.00;99.90;-0.30;98904.00;;;;4973477;28;82713;-69
2023/03/08 03:53:33;;;;;;;4.13;2.10;;;0.00;99.90;-0.30;98904.00;;;;4977675;28;82923;-69
2023/03/08 03:56:21;;;;;;;5.83;2.67;;;0.00;99.90;-0.40;98894.00;;;;4977202;28;88959;-69
2023/03/08 03:58:47;;;;;;;2.60;2.20;;;0.00;99.90;-0.40;98902.00;;;;4976964;28;82572;-69
2023/03/08 04:01:28;;;;;;;2.20;1.90;;;-0.10;99.90;-0.50;98900.00;;;;4975248;28;98459;-69
2023/03/08 04:03:55;;;;;;;3.27;1.77;;;-0.20;99.90;-0.50;98896.00;;;;4975835;28;98519;-69
2023/03/08 04:06:31;;;;;;;3.10;1.50;;;-0.20;99.90;-0.50;98900.00;;;;4977641;28;82703;-69
2023/03/08 04:09:09;;;;;;;4.07;2.43;;;0.40;99.90;-0.60;98905.00;;;;4977264;28;82845;-69
2023/03/08 04:11:37;;;;;;;4.07;2.87;;;-0.20;99.90;-0.60;98908.00;;;;4978292;28;83927;-69
2023/03/08 04:14:04;;;;;;;2.13;1.53;;;-0.30;99.90;-0.60;98910.00;;;;4976869;28;84430;-69
2023/03/08 04:16:36;;;;;;;4.13;2.13;;;-0.30;99.90;-0.70;98912.00;;;;4979344;28;82764;-69
2023/03/08 04:19:05;;;;;;;3.23;2.07;;;-0.30;99.90;-0.70;98919.00;;;;4978910;28;82871;-69
2023/03/08 04:21:32;;;;;;;3.40;2.03;;;-0.30;99.90;-0.70;98921.00;;;;4978891;28;83531;-69
2023/03/08 04:23:58;;;;;;;3.97;2.70;;;-0.40;99.90;-0.70;98918.00;;;;4982043;28;111818;-69
2023/03/08 04:26:24;;;;;;;2.43;2.23;;;-0.40;99.90;-0.60;98907.00;;;;4980009;28;82755;-69
2023/03/08 04:28:50;;;;;;;3.80;2.00;;;-0.30;99.90;-0.60;98904.00;;;;4977522;28;108503;-69
2023/03/08 04:31:28;;;;;;;4.33;2.30;;;-0.30;99.90;-0.50;98920.00;;;;4972611;28;95030;-69
2023/03/08 04:33:54;;;;;;;8.73;2.93;;;0.90;99.90;-0.50;98914.00;;;;4975283;28;95527;-69
2023/03/08 04:36:21;;;;;;;4.03;2.70;;;-0.10;99.90;-0.40;98917.00;;;;4977044;28;105866;-69
2023/03/08 04:38:48;;;;;;;4.53;3.10;;;0.60;99.90;-0.40;98896.00;;;;4977799;28;89244;-69
2023/03/08 04:41:14;;;;;;;6.10;3.23;;;-0.10;99.90;-0.30;98891.00;;;;4975220;28;83643;-69
2023/03/08 04:43:45;;;;;;;4.40;2.67;;;0.10;99.90;-0.20;98905.00;;;;4995156;27;82894;-69
2023/03/08 04:46:11;;;;;;;9.47;2.67;;;0.10;99.90;-0.20;98914.00;;;;4980341;28;82630;-69
2023/03/08 04:48:37;;;;;;;4.87;2.90;;;0.10;99.90;-0.10;98912.00;;;;4992743;27;98452;-69
2023/03/08 04:51:06;;;;;;;3.90;2.67;;;0.20;99.90;-0.10;98906.00;;;;4974644;27;90346;-69
2023/03/08 04:53:32;;;;;;;3.37;2.93;;;0.30;99.90;0.00;98912.00;;;;4973813;28;83822;-69
2023/03/08 04:55:59;;;;;;;7.23;3.43;;;0.30;99.90;0.00;98904.00;;;;4972244;28;82753;-70
2023/03/08 04:58:26;;;;;;;7.33;3.70;;;0.30;99.90;0.10;98909.00;;;;4979257;28;83042;-69
2023/03/08 05:00:52;;;;;;;3.17;2.27;;;0.30;99.90;0.10;98910.00;;;;4977946;28;85793;-69
2023/03/08 05:03:18;;;;;;;6.00;3.30;;;0.60;99.90;0.20;98922.00;;;;4973531;28;83671;-69
2023/03/08 05:05:49;;;;;;;6.10;3.40;;;0.50;99.90;0.20;98911.00;;;;4976906;28;82633;-69
2023/03/08 05:08:17;;;;;;;6.57;4.80;;;0.50;99.90;0.20;98899.00;;;;4959470;28;82818;-69
2023/03/08 05:10:59;;;;;;;6.67;4.63;;;0.50;99.90;0.30;98897.00;;;;4990355;27;84266;-69
2023/03/08 05:13:28;;;;;;;7.87;5.00;;;0.60;99.90;0.20;98904.00;;;;4975948;28;83055;-69
2023/03/08 05:15:53;;;;;;;6.90;4.57;;;0.60;99.90;0.20;98903.00;;;;4978680;28;82808;-69
2023/03/08 05:18:19;;;;;;;6.87;5.17;;;0.40;99.90;0.20;98896.00;;;;4984871;28;109863;-69
2023/03/08 05:20:57;;;;;;;8.37;4.60;;;0.90;99.90;0.10;98896.00;;;;4981308;28;82800;-69
2023/03/08 05:23:24;;;;;;;5.43;3.53;;;0.40;99.90;0.10;98901.00;;;;4972010;28;98379;-69
2023/03/08 05:25:55;;;;;;;5.97;4.13;;;0.00;99.90;0.20;98905.00;;;;4975921;28;84388;-69
2023/03/08 05:28:22;;;;;;;6.87;4.17;;;0.40;99.90;0.20;98902.00;;;;4974935;28;100014;-69
2023/03/08 05:30:49;;;;;;;5.37;3.83;;;0.50;99.90;0.20;98913.00;;;;4974873;28;83066;-69
2023/03/08 05:33:17;;;;;;;7.77;4.60;;;0.40;99.90;0.20;98913.00;;;;4978001;28;97439;-69
2023/03/08 05:35:45;;;;;;;5.90;3.93;;;0.50;99.90;0.20;98908.00;;;;4978146;28;82552;-69
2023/03/08 05:38:11;;;;;;;6.83;4.67;;;0.50;99.90;0.20;98911.00;;;;4969454;28;95722;-69
2023/03/08 05:40:37;;;;;;;7.27;4.33;;;0.50;99.90;0.30;98908.00;;;;4976111;28;112093;-69
2023/03/08 05:43:12;;;;;;;6.67;4.30;;;0.60;99.90;0.30;98916.00;;;;4972358;27;83152;-67
2023/03/08 05:45:38;;;;;;;6.80;4.30;;;0.60;99.90;0.30;98912.00;;;;4972472;28;83033;-68
2023/03/08 05:48:03;;;;;;;6.17;3.87;;;0.60;99.90;0.30;98916.00;;;;4969236;28;109305;-70
2023/03/08 05:50:29;;;;;;;6.50;3.70;;;1.30;99.90;0.30;98923.00;;;;4973915;28;107579;-69
2023/03/08 05:52:55;;;;;;;5.23;4.37;;;1.50;99.90;0.30;98923.00;;;;4975666;28;112437;-69
2023/03/08 05:55:20;;;;;;;5.40;3.73;;;0.60;99.90;0.30;98931.00;;;;4974758;28;111219;-70
2023/03/08 05:57:46;;;;;;;7.17;4.30;;;0.70;99.90;0.40;98939.00;;;;4974877;28;108219;-69
2023/03/08 06:00:13;;;;;;;5.23;3.80;;;0.70;99.90;0.40;98944.00;;;;4974966;28;112553;-69
2023/03/08 06:02:38;;;;;;;5.17;4.67;;;0.70;99.90;0.40;98938.00;;;;4973872;28;104916;-69
2023/03/08 06:05:04;;;;;;;5.97;5.17;;;0.90;99.90;0.50;98932.00;;;;4977088;28;111071;-69
2023/03/08 06:07:30;;;;;;;8.90;5.37;;;0.70;99.90;0.50;98936.00;;;;4972753;28;81897;-69
2023/03/08 06:09:56;;;;;;;7.40;4.13;;;0.80;99.90;0.50;98931.00;;;;4973344;28;111909;-70
2023/03/08 06:12:21;;;;;;;10.30;4.77;;;0.80;99.90;0.50;98948.00;;;;4959395;28;82828;-68
2023/03/08 06:14:47;;;;;;;7.00;4.60;;;0.80;99.90;0.60;98952.00;;;;4978736;28;83996;-68
2023/03/08 06:17:13;;;;;;;8.40;5.13;;;0.90;99.90;0.60;98939.00;;;;4974876;27;83042;-68
2023/03/08 06:19:39;;;;;;;8.97;4.50;;;1.00;99.90;0.60;98942.00;;;;4975907;28;111383;-68
2023/03/08 06:22:04;;;;;;;5.10;4.57;;;1.00;99.90;0.60;98930.00;;;;4968827;28;113165;-68
2023/03/08 06:24:30;;;;;;;5.57;4.50;;;1.00;99.90;0.70;98927.00;;;;4976711;28;110795;-68
2023/03/08 06:26:56;;;;;;;6.03;4.47;;;0.90;99.90;0.70;98930.00;;;;4977054;28;108401;-68
2023/03/08 06:29:22;;;;;;;6.40;4.10;;;1.10;99.90;0.70;98930.00;;;;4975236;28;83469;-68
2023/03/08 06:31:48;;;;;;;6.40;4.80;;;1.10;99.90;0.80;98928.00;;;;4974756;28;112604;-68
2023/03/08 06:34:13;;;;;;;7.13;4.60;;;1.10;99.90;0.80;98938.00;;;;4976421;28;92852;-67
2023/03/08 06:36:39;;;;;;;4.50;3.70;;;1.10;99.90;0.80;98934.00;;;;4977237;28;106796;-66
2023/03/08 06:39:05;;;;;;;3.70;3.33;;;1.10;99.90;0.90;98938.00;;;;4975809;28;113142;-66
2023/03/08 06:41:31;;;;;;;3.20;2.90;;;1.20;99.90;0.90;98937.00;;;;4972720;28;84864;-66
2023/03/08 06:43:57;;;;;;;3.37;3.07;;;1.20;99.90;0.90;98950.00;;;;4975372;28;83096;-66
2023/03/08 06:46:23;;;;;;;5.10;3.63;;;1.20;99.90;1.00;98948.00;;;;4974519;28;92954;-66
2023/03/08 06:48:50;;;;;;;5.87;4.00;;;1.30;99.90;1.00;98940.00;;;;4990398;27;82866;-65
2023/03/08 06:51:16;;;;;;;5.20;3.00;;;1.20;99.90;1.00;98949.00;;;;4974048;28;84017;-66
2023/03/08 06:53:42;;;;;;;7.67;4.87;;;1.30;99.90;1.00;98942.00;;;;4975291;28;82763;-66
2023/03/08 06:56:13;;;;;;;7.13;4.57;;;1.40;99.90;1.00;98937.00;;;;4979259;28;82064;-66
2023/03/08 06:58:39;;;;;;;4.87;3.93;;;1.40;99.90;1.10;98934.00;;;;4974883;28;83391;-65
2023/03/08 07:01:05;;;;;;;6.67;3.30;;;1.40;99.90;1.10;98935.00;;;;4969139;28;111453;-66
2023/03/08 07:03:32;;;;;;;6.90;3.47;;;1.30;99.90;1.10;98932.00;;;;4975206;28;83825;-64
2023/03/08 07:06:00;;;;;;;5.73;3.63;;;1.40;99.90;1.10;98933.00;;;;4974763;28;82912;-63
2023/03/08 07:08:26;;;;;;;7.00;4.07;;;1.40;99.90;1.10;98946.00;;;;4972803;28;83467;-63
2023/03/08 07:10:51;;;;;;;5.43;3.33;;;1.40;99.90;1.20;98941.00;;;;4972335;28;103926;-63
2023/03/08 07:13:17;;;;;;;4.83;3.90;;;1.50;99.90;1.20;98946.00;;;;4972631;28;87751;-63
2023/03/08 07:15:43;;;;;;;7.30;4.63;;;1.50;99.90;1.20;98946.00;;;;4976565;28;82769;-62
2023/03/08 07:18:08;;;;;;;6.10;3.63;;;1.60;99.90;1.20;98961.00;;;;4977031;28;112271;-63
2023/03/08 07:20:34;;;;;;;11.70;6.90;;;1.50;99.90;1.30;98953.00;;;;4976656;28;83397;-63
2023/03/08 07:23:00;;;;;;;8.97;6.23;;;1.60;99.90;1.30;98963.00;;;;4977403;27;110682;-64
2023/03/08 07:25:27;;;;;;;11.13;6.03;;;1.60;99.90;1.30;98957.00;;;;4975188;28;82658;-64
2023/03/08 07:27:52;;;;;;;7.93;5.63;;;1.60;99.90;1.30;98950.00;;;;4979079;28;94109;-64
2023/03/08 07:30:19;;;;;;;4.37;3.37;;;1.60;99.90;1.30;98945.00;;;;4977273;28;105626;-64
2023/03/08 07:32:45;;;;;;;8.37;6.03;;;1.60;99.90;1.30;98949.00;;;;4978503;28;82440;-64
2023/03/08 07:35:14;;;;;;;6.53;4.33;;;1.50;99.90;1.30;98951.00;;;;4976424;28;83013;-64
2023/03/08 07:37:43;;;;;;;8.43;4.33;;;1.50;99.90;1.20;98951.00;;;;4976485;28;84819;-64
2023/03/08 07:40:11;;;;;;;4.87;3.77;;;1.60;99.90;1.20;98959.00;;;;4975140;28;100773;-64
2023/03/08 07:42:36;;;;;;;7.53;5.07;;;1.50;99.90;1.30;98940.00;;;;4979438;28;82869;-65
2023/03/08 07:45:03;;;;;;;5.37;4.53;;;1.60;99.90;1.30;98943.00;;;;4978832;28;107773;-65
2023/03/08 07:47:28;;;;;;;7.53;5.53;;;1.50;99.90;1.30;98948.00;;;;4979366;28;105173;-65
2023/03/08 07:49:54;;;;;;;12.33;6.03;;;1.70;99.90;1.30;98950.00;;;;4978054;28;110797;-67
2023/03/08 07:52:19;;;;;;;8.13;5.70;;;2.40;99.90;1.40;98952.00;;;;4971237;28;108869;-66
2023/03/08 07:54:45;;;;;;;12.93;5.80;;;1.60;99.90;1.40;98945.00;;;;4980295;28;109277;-67
2023/03/08 07:57:14;;;;;;;5.43;4.53;;;1.70;99.90;1.40;98943.00;;;;4975545;28;111712;-67
2023/03/08 07:59:41;;;;;;;9.97;5.20;;;1.70;99.90;1.50;98946.00;;;;4973736;28;112260;-67
2023/03/08 08:02:12;;;;;;;6.57;4.60;;;1.70;99.90;1.50;98939.00;;;;4973955;28;102422;-66
2023/03/08 08:04:38;;;;;;;8.23;5.03;;;1.80;99.90;1.60;98934.00;;;;4977361;28;82690;-67
2023/03/08 08:07:04;;;;;;;9.73;6.80;;;1.80;99.90;1.60;98932.00;;;;4974037;28;84020;-67
2023/03/08 08:09:30;;;;;;;4.70;4.20;;;1.80;99.90;1.70;98938.00;;;;4980561;28;104598;-66
2023/03/08 08:11:55;;;;;;;6.37;4.43;;;2.00;99.90;1.70;98947.00;;;;4976722;28;82603;-68
2023/03/08 08:14:21;;;;;;;6.90;4.77;;;1.90;99.90;1.70;98945.00;;;;4976419;28;107818;-69
2023/03/08 08:16:47;;;;;;;9.47;4.33;;;2.00;99.90;1.70;98928.00;;;;4978672;28;87801;-70
2023/03/08 08:19:13;;;;;;;7.87;5.53;;;1.90;99.90;1.70;98928.00;;;;4972636;28;111612;-69
2023/03/08 08:21:40;;;;;;;5.07;4.60;;;1.90;99.90;1.80;98932.00;;;;4980919;28;82799;-70
2023/03/08 08:24:06;;;;;;;11.63;6.40;;;2.00;99.90;1.80;98931.00;;;;4980267;28;82827;-70
2023/03/08 08:26:32;;;;;;;8.57;5.90;;;2.10;99.90;1.90;98927.00;;;;4976808;28;83049;-70
2023/03/08 08:28:58;;;;;;;5.07;4.40;;;2.20;99.90;2.00;98930.00;;;;4979645;28;111657;-72
2023/03/08 08:31:29;;;;;;;5.90;4.70;;;2.20;99.90;2.10;98933.00;;;;4976762;28;109887;-71
2023/03/08 08:33:56;;;;;;;5.90;3.93;;;2.30;99.90;2.10;98924.00;;;;4975640;28;82230;-71
2023/03/08 08:36:22;;;;;;;6.07;5.33;;;2.90;99.90;2.20;98921.00;;;;4978822;28;104094;-73
2023/03/08 08:38:48;;;;;;;6.47;4.63;;;2.40;99.90;2.30;98910.00;;;;4974428;28;83079;-72
2023/03/08 08:41:17;;;;;;;4.53;4.13;;;2.40;99.90;2.40;98916.00;;;;4977206;28;110376;-72
2023/03/08 08:43:45;;;;;;;3.73;3.03;;;2.50;99.90;2.50;98907.00;;;;4978400;28;91831;-73
2023/03/08 08:46:12;;;;;;;4.63;3.83;;;2.60;99.90;2.60;98912.00;;;;4977862;28;99916;-71
2023/03/08 08:48:38;;;;;;;6.87;4.60;;;2.70;99.90;2.70;98914.00;;;;4981098;28;83242;-70
2023/03/08 08:51:11;;;;;;;6.77;4.63;;;2.90;99.90;2.70;98920.00;;;;4981912;28;82704;-72
2023/03/08 08:53:37;;;;;;;5.53;3.97;;;2.90;99.90;2.70;98923.00;;;;4978289;28;95924;-70
2023/03/08 08:56:18;;;;;;;3.80;3.50;;;2.90;99.90;2.80;98916.00;;;;4976712;27;113254;-69
2023/03/08 08:58:45;;;;;;;5.97;4.13;;;4.00;99.90;2.90;98920.00;;;;4978713;28;102480;-70
2023/03/08 09:01:22;;;;;;;6.83;3.97;;;3.00;99.90;2.90;98919.00;;;;4977793;28;82742;-70
2023/03/08 09:03:48;;;;;;;6.70;4.67;;;3.10;99.90;2.90;98909.00;;;;4976877;28;82950;-70
2023/03/08 09:06:18;;;;;;;4.00;3.30;;;3.10;99.90;2.90;98912.00;;;;4982723;28;83807;-70
2023/03/08 09:08:47;;;;;;;7.17;4.47;;;3.10;99.90;3.00;98901.00;;;;4977605;28;82951;-71
2023/03/08 09:11:13;;;;;;;4.30;3.83;;;3.20;99.90;3.00;98904.00;;;;4981800;28;99054;-67
2023/03/08 09:13:40;;;;;;;11.27;7.00;;;3.10;99.90;3.00;98909.00;;;;4981295;28;107673;-68
2023/03/08 09:16:15;;;;;;;5.57;4.23;;;3.20;99.90;3.00;98901.00;;;;4980269;28;83052;-67
2023/03/08 09:18:41;;;;;;;18.93;6.83;;;3.20;99.90;3.00;98895.00;;;;4979370;28;102213;-67
2023/03/08 09:21:07;;;;;;;8.30;4.83;;;3.50;99.90;3.00;98887.00;;;;4971956;28;110526;-68
2023/03/08 09:23:32;;;;;;;7.53;4.57;;;3.30;99.90;3.10;98887.00;;;;4976488;28;109365;-69
2023/03/08 09:25:59;;;;;;;8.37;4.60;;;3.30;99.90;3.20;98884.00;;;;4976752;28;112794;-71
2023/03/08 09:28:24;;;;;;;9.93;4.50;;;4.00;99.90;3.30;98882.00;;;;4976292;28;82742;-71
2023/03/08 09:30:50;;;;;;;8.10;5.20;;;3.40;99.90;3.40;98870.00;;;;4973872;28;110967;-71
2023/03/08 09:33:16;;;;;;;4.43;3.70;;;3.50;99.90;3.40;98869.00;;;;4978749;28;93324;-72
2023/03/08 09:35:42;;;;;;;7.27;3.83;;;3.50;99.90;3.40;98870.00;;;;4991813;27;87513;-70
2023/03/08 09:38:08;;;;;;;5.67;3.10;;;3.60;99.90;3.50;98867.00;;;;4979510;28;112024;-68
2023/03/08 09:41:07;;;;;;;5.13;3.47;;;4.60;99.90;3.40;98863.00;;;;4977429;28;108962;-68
2023/03/08 09:44:16;;;;;;;4.97;3.20;;;3.60;99.90;3.30;98863.00;;;;4975634;28;100531;-66
2023/03/08 09:46:49;;;;;;;6.37;2.83;;;3.60;99.90;3.40;98861.00;;;;4968237;28;100620;-66
2023/03/08 09:49:26;;;;;;;4.73;3.17;;;3.50;99.90;3.40;98863.00;;;;4989754;27;103184;-66
2023/03/08 09:52:02;;;;;;;4.03;2.03;;;3.60;99.90;3.30;98851.00;;;;4973137;28;96252;-66
2023/03/08 09:54:29;;;;;;;6.87;2.87;;;4.60;99.90;3.40;98851.00;;;;4990949;27;82954;-66
2023/03/08 09:56:55;;;;;;;3.83;2.70;;;3.50;99.90;3.40;98849.00;;;;4978799;28;112496;-65
2023/03/08 09:59:41;;;;;;;5.97;3.00;;;3.50;99.90;3.30;98839.00;;;;4976561;28;112415;-65
2023/03/08 10:02:32;;;;;;;3.33;2.53;;;3.60;99.90;3.40;98839.00;;;;4973679;28;82854;-66
2023/03/08 10:05:26;;;;;;;5.43;2.63;;;3.60;99.90;3.40;98832.00;;;;4992395;27;82719;-66
2023/03/08 10:08:14;;;;;;;3.23;2.70;;;3.60;99.90;3.40;98838.00;;;;4990740;27;82575;-66
2023/03/08 10:11:19;;;;;;;7.13;3.83;;;3.60;99.90;3.50;98833.00;;;;4973557;28;100565;-66
2023/03/08 10:13:51;;;;;;;3.03;2.70;;;3.70;99.90;3.60;98827.00;;;;4952824;28;100374;-66
2023/03/08 10:16:28;;;;;;;4.40;3.07;;;3.60;99.90;3.60;98821.00;;;;4992511;27;82063;-66
2023/03/08 10:19:03;;;;;;;3.27;2.73;;;3.70;99.90;3.60;98815.00;;;;4990023;27;83509;-66
2023/03/08 10:21:36;;;;;;;3.73;2.73;;;4.50;99.90;3.60;98813.00;;;;4976158;28;108897;-66
2023/03/08 10:24:38;;;;;;;6.07;3.10;;;3.90;99.90;3.60;98815.00;;;;4989775;27;93582;-66
2023/03/08 10:27:34;;;;;;;2.47;1.87;;;3.60;99.90;3.50;98805.00;;;;4971022;28;97174;-66
2023/03/08 10:30:13;;;;;;;2.77;2.57;;;3.70;99.90;3.40;98795.00;;;;4961972;28;110299;-66
2023/03/08 10:32:49;;;;;;;5.67;2.63;;;3.70;99.90;3.40;98807.00;;;;4977533;28;101208;-66
2023/03/08 10:35:50;;;;;;;2.77;2.30;;;4.00;99.90;3.40;98810.00;;;;4977167;28;82464;-66
2023/03/08 10:38:16;;;;;;;6.13;3.37;;;3.60;99.90;3.40;98812.00;;;;4974314;28;83120;-65
2023/03/08 10:40:42;;;;;;;4.27;2.57;;;3.60;99.90;3.50;98804.00;;;;4976283;28;112975;-65
2023/03/08 10:43:25;;;;;;;7.70;3.67;;;3.60;99.90;3.40;98801.00;;;;4976073;28;112044;-65
2023/03/08 10:46:05;;;;;;;4.17;2.63;;;3.60;99.90;3.40;98806.00;;;;4974600;28;101320;-66
2023/03/08 10:48:31;;;;;;;2.53;1.93;;;3.60;99.90;3.40;98802.00;;;;4975478;28;91094;-65
2023/03/08 10:51:03;;;;;;;3.90;2.73;;;3.50;99.90;3.40;98801.00;;;;4969941;28;114186;-65
2023/03/08 10:53:30;;;;;;;2.90;2.53;;;3.50;99.90;3.30;98801.00;;;;4973635;28;83929;-65
2023/03/08 10:55:59;;;;;;;2.83;2.50;;;3.50;99.90;3.30;98795.00;;;;4979279;28;82835;-65
2023/03/08 10:58:32;;;;;;;3.93;2.60;;;3.60;99.90;3.30;98783.00;;;;4976223;28;82666;-65
2023/03/08 11:01:06;;;;;;;4.47;2.83;;;3.50;99.90;3.30;98770.00;;;;4993225;27;82896;-66
2023/03/08 11:03:32;;;;;;;4.10;3.00;;;3.50;99.90;3.30;98785.00;;;;4978887;28;82921;-65
2023/03/08 11:05:59;;;;;;;5.97;3.60;;;3.50;99.90;3.40;98777.00;;;;4979104;28;82715;-64
2023/03/08 11:08:35;;;;;;;3.93;2.13;;;3.50;99.90;3.40;98772.00;;;;4976763;28;82056;-64
2023/03/08 11:11:12;;;;;;;2.93;2.10;;;3.50;99.90;3.30;98765.00;;;;4976445;28;83130;-64
2023/03/08 11:13:43;;;;;;;3.57;3.27;;;3.60;99.90;3.30;98763.00;;;;4977703;28;94206;-64